Time;durP1;ratioP1;P1;durP2;ratioP2;P2;SDS_P1;SDS_P2;PMS_P1;PMS_P2;Temp;Humidity;BMP_temperature;BMP_pressure;BME280_temperature;BME280_humidity;BME280_pressure;Samples;Min_cycle;Max_cycle;Signal;HPM_P1;HPM_P2
2023/05/28 00:00:06;;;;;;;40.97;12.90;;;;;;;;;;5074398;28;20020;-80
2023/05/28 00:02:32;;;;;;;37.73;13.73;;;;;;;;;;5071174;28;20045;-81
2023/05/28 00:04:58;;;;;;;37.40;13.40;;;;;;;;;;5074746;28;20462;-80
2023/05/28 00:07:24;;;;;;;39.63;13.37;;;;;;;;;;5074166;28;20021;-79
2023/05/28 00:09:49;;;;;;;44.00;13.80;;;;;;;;;;5074422;28;20017;-81
2023/05/28 00:12:14;;;;;;;35.40;13.30;;;;;;;;;;5081157;28;20052;-80
2023/05/28 00:14:42;;;;;;;37.87;12.90;;;;;;;;;;5074288;28;20040;-80
2023/05/28 00:17:07;;;;;;;35.37;12.57;;;;;;;;;;5077632;28;20020;-81
2023/05/28 00:19:32;;;;;;;36.37;13.33;;;;;;;;;;5074669;28;20029;-81
2023/05/28 00:21:58;;;;;;;34.27;13.03;;;;;;;;;;5082097;28;20477;-82
2023/05/28 00:24:23;;;;;;;36.63;14.07;;;;;;;;;;5095071;28;20045;-81
2023/05/28 00:26:48;;;;;;;39.73;12.87;;;;;;;;;;5076848;28;20028;-82
2023/05/28 00:29:14;;;;;;;39.03;14.60;;;;;;;;;;5083605;28;20031;-82
2023/05/28 00:31:39;;;;;;;39.77;15.50;;;;;;;;;;5093422;28;20016;-82
2023/05/28 00:34:04;;;;;;;37.33;14.33;;;;;;;;;;5092876;28;20047;-82
2023/05/28 00:36:30;;;;;;;39.37;13.87;;;;;;;;;;5083943;28;20020;-82
2023/05/28 00:38:55;;;;;;;41.40;15.27;;;;;;;;;;5076039;28;20459;-78
2023/05/28 00:41:22;;;;;;;42.17;14.87;;;;;;;;;;5073658;28;20020;-82
2023/05/28 00:43:48;;;;;;;42.80;14.63;;;;;;;;;;5073370;28;20027;-81
2023/05/28 00:46:17;;;;;;;46.83;16.07;;;;;;;;;;5073342;28;20039;-82
2023/05/28 00:48:42;;;;;;;41.03;14.23;;;;;;;;;;5073389;28;20462;-83
2023/05/28 00:51:08;;;;;;;48.80;15.10;;;;;;;;;;5092168;28;20077;-83
2023/05/28 00:53:33;;;;;;;41.77;14.13;;;;;;;;;;5090730;28;20136;-83
2023/05/28 00:55:58;;;;;;;42.27;14.97;;;;;;;;;;5084356;28;20020;-81
2023/05/28 00:58:24;;;;;;;45.00;14.63;;;;;;;;;;5073772;28;20009;-82
2023/05/28 01:03:53;;;;;;;42.17;14.10;;;;;;;;;;5072835;23;20119;-63
2023/05/28 01:06:20;;;;;;;42.20;15.63;;;;;;;;;;5049397;28;20470;-64
2023/05/28 01:08:46;;;;;;;36.63;14.13;;;;;;;;;;5054348;28;20459;-64
2023/05/28 01:11:13;;;;;;;41.47;15.13;;;;;;;;;;5053749;28;20025;-63
2023/05/28 01:13:39;;;;;;;48.90;15.07;;;;;;;;;;5050332;28;20462;-63
2023/05/28 01:16:05;;;;;;;44.67;15.57;;;;;;;;;;5051458;28;20025;-62
2023/05/28 01:18:31;;;;;;;47.20;15.57;;;;;;;;;;5050908;28;21232;-63
2023/05/28 01:20:58;;;;;;;49.20;15.43;;;;;;;;;;5051333;28;20197;-64
2023/05/28 01:23:24;;;;;;;45.03;15.50;;;;;;;;;;5052335;28;20028;-63
2023/05/28 01:25:53;;;;;;;43.43;15.70;;;;;;;;;;5052327;28;20021;-63
2023/05/28 01:28:20;;;;;;;46.63;15.97;;;;;;;;;;5051053;28;20017;-62
2023/05/28 01:30:46;;;;;;;52.80;15.93;;;;;;;;;;5052356;28;20032;-62
2023/05/28 01:33:12;;;;;;;48.67;16.43;;;;;;;;;;5057361;28;20012;-62
2023/05/28 01:35:38;;;;;;;51.43;16.50;;;;;;;;;;5059706;28;20024;-64
2023/05/28 01:38:04;;;;;;;48.10;14.90;;;;;;;;;;5051371;28;20112;-63
2023/05/28 01:40:30;;;;;;;48.03;15.30;;;;;;;;;;5051485;28;20029;-63
2023/05/28 01:42:56;;;;;;;58.10;16.70;;;;;;;;;;5052413;28;20470;-62
2023/05/28 01:45:22;;;;;;;43.30;15.90;;;;;;;;;;5053335;28;20086;-63
2023/05/28 01:47:48;;;;;;;55.23;17.23;;;;;;;;;;5053447;28;20032;-64
2023/05/28 01:50:13;;;;;;;53.13;16.63;;;;;;;;;;5059239;28;20051;-63
2023/05/28 01:52:39;;;;;;;52.07;17.07;;;;;;;;;;5063075;28;20109;-63
2023/05/28 01:55:05;;;;;;;51.03;17.33;;;;;;;;;;5053281;28;20017;-64
2023/05/28 01:57:30;;;;;;;49.10;16.47;;;;;;;;;;5052113;28;20021;-63
2023/05/28 01:59:55;;;;;;;48.53;16.30;;;;;;;;;;5053598;28;20047;-62
2023/05/28 02:02:25;;;;;;;51.37;16.60;;;;;;;;;;5061163;28;20032;-63
2023/05/28 02:04:51;;;;;;;51.60;15.80;;;;;;;;;;5060450;28;20518;-62
2023/05/28 02:07:16;;;;;;;54.07;16.40;;;;;;;;;;5055916;28;20029;-63
2023/05/28 02:09:42;;;;;;;61.87;16.43;;;;;;;;;;5062081;28;20394;-62
2023/05/28 02:12:07;;;;;;;59.10;18.57;;;;;;;;;;5056292;28;20036;-62
2023/05/28 02:14:32;;;;;;;57.97;17.13;;;;;;;;;;5055870;28;20025;-63
2023/05/28 02:16:58;;;;;;;53.67;17.83;;;;;;;;;;5071316;28;20085;-63
2023/05/28 02:19:24;;;;;;;56.73;17.30;;;;;;;;;;5059753;28;20024;-62
2023/05/28 02:21:49;;;;;;;61.80;18.13;;;;;;;;;;5056749;28;20024;-62
2023/05/28 02:24:15;;;;;;;58.63;18.00;;;;;;;;;;5063760;28;20024;-63
2023/05/28 02:26:41;;;;;;;71.83;19.20;;;;;;;;;;5061353;28;20029;-62
2023/05/28 02:29:06;;;;;;;64.60;19.37;;;;;;;;;;5055689;28;20156;-63
2023/05/28 02:31:31;;;;;;;63.30;18.20;;;;;;;;;;5055089;28;20497;-62
2023/05/28 02:33:57;;;;;;;56.03;19.03;;;;;;;;;;5074575;28;20028;-62
2023/05/28 02:36:22;;;;;;;58.77;20.00;;;;;;;;;;5064925;28;20408;-62
2023/05/28 02:38:48;;;;;;;59.73;19.30;;;;;;;;;;5062088;28;20055;-63
2023/05/28 02:41:13;;;;;;;63.10;20.33;;;;;;;;;;5056202;28;20108;-63
2023/05/28 02:43:39;;;;;;;71.67;20.37;;;;;;;;;;5055454;28;20036;-62
2023/05/28 02:46:04;;;;;;;68.53;20.90;;;;;;;;;;5056047;28;20428;-62
2023/05/28 02:48:30;;;;;;;64.90;19.83;;;;;;;;;;5055524;28;20031;-62
2023/05/28 02:50:56;;;;;;;73.97;20.23;;;;;;;;;;5055288;28;20017;-62
2023/05/28 02:53:21;;;;;;;68.17;20.60;;;;;;;;;;5052054;28;20135;-62
2023/05/28 02:55:47;;;;;;;66.30;21.10;;;;;;;;;;5055593;28;20049;-62
2023/05/28 02:58:12;;;;;;;64.90;21.20;;;;;;;;;;5055570;28;20425;-62
2023/05/28 03:00:38;;;;;;;63.37;21.33;;;;;;;;;;5055320;28;20438;-62
2023/05/28 03:03:03;;;;;;;65.27;20.23;;;;;;;;;;5054828;28;20052;-63
2023/05/28 03:05:31;;;;;;;70.13;20.97;;;;;;;;;;5054496;28;20049;-62
2023/05/28 03:07:56;;;;;;;66.57;20.57;;;;;;;;;;5056299;28;20028;-62
2023/05/28 03:10:21;;;;;;;70.43;20.37;;;;;;;;;;5062606;28;20040;-62
2023/05/28 03:12:46;;;;;;;65.17;20.80;;;;;;;;;;5074157;28;20362;-62
2023/05/28 03:15:12;;;;;;;64.50;20.70;;;;;;;;;;5073819;28;20024;-62
2023/05/28 03:17:37;;;;;;;65.70;20.70;;;;;;;;;;5073905;28;20457;-62
2023/05/28 03:20:03;;;;;;;66.40;21.43;;;;;;;;;;5056150;28;20035;-62
2023/05/28 03:22:28;;;;;;;61.70;20.37;;;;;;;;;;5054745;28;20389;-62
2023/05/28 03:24:53;;;;;;;68.97;21.47;;;;;;;;;;5055031;28;20104;-62
2023/05/28 03:27:19;;;;;;;68.57;20.80;;;;;;;;;;5054557;28;20428;-63
2023/05/28 03:29:44;;;;;;;64.87;21.27;;;;;;;;;;5054046;28;20039;-62
2023/05/28 03:32:09;;;;;;;73.37;22.27;;;;;;;;;;5054890;28;20471;-62
2023/05/28 03:34:35;;;;;;;69.10;20.73;;;;;;;;;;5054499;28;20104;-62
2023/05/28 03:37:01;;;;;;;63.27;20.30;;;;;;;;;;5054243;28;20021;-62
2023/05/28 03:39:27;;;;;;;71.43;20.20;;;;;;;;;;5054885;28;20029;-61
2023/05/28 03:41:52;;;;;;;60.63;19.47;;;;;;;;;;5053995;28;20074;-62
2023/05/28 03:44:17;;;;;;;60.33;19.13;;;;;;;;;;5051032;28;20028;-62
2023/05/28 03:46:43;;;;;;;54.90;18.13;;;;;;;;;;5072429;28;20020;-62
2023/05/28 03:49:08;;;;;;;60.60;18.67;;;;;;;;;;5056437;28;20021;-62
2023/05/28 03:51:33;;;;;;;57.50;17.80;;;;;;;;;;5057037;28;20040;-62
2023/05/28 03:53:58;;;;;;;52.60;17.60;;;;;;;;;;5057666;28;20021;-62
2023/05/28 03:56:24;;;;;;;58.47;18.00;;;;;;;;;;5054132;28;20111;-62
2023/05/28 03:58:49;;;;;;;60.13;18.37;;;;;;;;;;5053853;28;20474;-62
2023/05/28 04:01:15;;;;;;;44.77;16.57;;;;;;;;;;5053106;28;20417;-62
2023/05/28 04:03:40;;;;;;;47.27;16.13;;;;;;;;;;5054999;28;20041;-62
2023/05/28 04:06:06;;;;;;;40.03;15.50;;;;;;;;;;5072749;28;20023;-62
2023/05/28 04:08:32;;;;;;;33.20;12.87;;;;;;;;;;5052282;28;20036;-62
2023/05/28 04:10:57;;;;;;;31.50;11.10;;;;;;;;;;5067267;28;20033;-62
2023/05/28 04:13:22;;;;;;;28.20;11.07;;;;;;;;;;5072675;28;20028;-62
2023/05/28 04:15:48;;;;;;;28.87;9.77;;;;;;;;;;5059181;28;20017;-61
2023/05/28 04:18:13;;;;;;;23.20;8.83;;;;;;;;;;5052328;28;20027;-63
2023/05/28 04:20:38;;;;;;;18.77;8.30;;;;;;;;;;5053884;28;20025;-61
2023/05/28 04:23:04;;;;;;;18.77;8.10;;;;;;;;;;5053319;28;20475;-62
2023/05/28 04:25:29;;;;;;;19.90;7.23;;;;;;;;;;5053834;28;20383;-62
2023/05/28 04:27:54;;;;;;;20.73;6.77;;;;;;;;;;5053644;28;20020;-62
2023/05/28 04:30:22;;;;;;;15.77;7.03;;;;;;;;;;5053327;28;20017;-62
2023/05/28 04:32:48;;;;;;;21.20;7.33;;;;;;;;;;5071919;28;20058;-62
2023/05/28 04:35:14;;;;;;;22.57;7.77;;;;;;;;;;5059068;28;20021;-62
2023/05/28 04:37:39;;;;;;;16.67;7.10;;;;;;;;;;5053585;28;20439;-62
2023/05/28 04:40:12;;;;;;;20.33;7.20;;;;;;;;;;5053256;28;20060;-62
2023/05/28 04:42:37;;;;;;;16.37;6.90;;;;;;;;;;5053147;28;20134;-62
2023/05/28 04:45:03;;;;;;;17.33;7.00;;;;;;;;;;5053061;28;20490;-62
2023/05/28 04:47:28;;;;;;;17.57;6.60;;;;;;;;;;5053576;28;20390;-61
2023/05/28 04:49:53;;;;;;;17.47;7.23;;;;;;;;;;5064486;28;20056;-61
2023/05/28 04:52:19;;;;;;;18.70;6.80;;;;;;;;;;5052735;28;20029;-62
2023/05/28 04:54:45;;;;;;;20.10;6.47;;;;;;;;;;5053086;28;20025;-62
2023/05/28 04:57:10;;;;;;;17.67;6.23;;;;;;;;;;5052400;28;20020;-62
2023/05/28 04:59:35;;;;;;;17.02;5.90;;;;;;;;;;5053202;28;20031;-63
2023/05/28 05:02:01;;;;;;;17.80;6.85;;;;;;;;;;5052390;28;20071;-64
2023/05/28 05:04:26;;;;;;;19.48;6.85;;;;;;;;;;5052011;28;20044;-62
2023/05/28 05:06:51;;;;;;;14.52;5.50;;;;;;;;;;5054989;28;20036;-62
2023/05/28 05:09:18;;;;;;;16.42;6.10;;;;;;;;;;5056570;28;20021;-62
2023/05/28 05:11:44;;;;;;;15.27;5.88;;;;;;;;;;5052123;28;20033;-63
2023/05/28 05:14:10;;;;;;;17.95;6.00;;;;;;;;;;5052803;28;20078;-62
2023/05/28 05:16:35;;;;;;;13.90;6.10;;;;;;;;;;5052478;28;20017;-62
2023/05/28 05:19:00;;;;;;;18.58;6.07;;;;;;;;;;5052871;28;20058;-62
2023/05/28 05:21:26;;;;;;;18.55;5.88;;;;;;;;;;5051346;28;20083;-62
2023/05/28 05:23:51;;;;;;;13.02;5.25;;;;;;;;;;5060607;28;20025;-62
2023/05/28 05:26:19;;;;;;;12.77;5.35;;;;;;;;;;5049868;28;20401;-62
2023/05/28 05:28:44;;;;;;;12.93;5.60;;;;;;;;;;5052008;28;20031;-62
2023/05/28 05:31:13;;;;;;;12.85;5.50;;;;;;;;;;5051739;28;20032;-62
2023/05/28 05:33:40;;;;;;;11.80;5.50;;;;;;;;;;5050781;28;20417;-62
2023/05/28 05:36:06;;;;;;;15.65;5.50;;;;;;;;;;5051796;28;20410;-62
2023/05/28 05:38:31;;;;;;;17.73;5.18;;;;;;;;;;5051506;28;20053;-62
2023/05/28 05:40:56;;;;;;;16.77;5.50;;;;;;;;;;5052900;28;20110;-62
2023/05/28 05:43:22;;;;;;;12.48;5.40;;;;;;;;;;5050801;28;20036;-62
2023/05/28 05:45:47;;;;;;;15.68;5.95;;;;;;;;;;5053944;28;20055;-63
2023/05/28 05:48:12;;;;;;;15.02;6.05;;;;;;;;;;5051796;28;20020;-63
2023/05/28 05:50:47;;;;;;;18.73;6.38;;;;;;;;;;5051738;28;20490;-63
2023/05/28 05:53:13;;;;;;;13.63;6.05;;;;;;;;;;5051708;28;20044;-64
2023/05/28 05:55:38;;;;;;;13.48;6.25;;;;;;;;;;5053006;28;20056;-65
2023/05/28 05:58:03;;;;;;;16.45;6.13;;;;;;;;;;5052392;28;20388;-64
2023/05/28 06:00:29;;;;;;;16.50;6.45;;;;;;;;;;5048601;28;20024;-64
2023/05/28 06:02:54;;;;;;;17.48;7.30;;;;;;;;;;5052259;28;20024;-65
2023/05/28 06:05:19;;;;;;;13.85;6.40;;;;;;;;;;5051058;28;20037;-64
2023/05/28 06:07:45;;;;;;;15.40;6.70;;;;;;;;;;5052166;28;20402;-65
2023/05/28 06:10:11;;;;;;;17.17;7.05;;;;;;;;;;5051968;28;20029;-64
2023/05/28 06:12:37;;;;;;;17.20;7.15;;;;;;;;;;5051581;28;20056;-64
2023/05/28 06:15:03;;;;;;;17.77;7.20;;;;;;;;;;5050418;28;20052;-64
2023/05/28 06:17:29;;;;;;;16.65;7.00;;;;;;;;;;5051417;28;20021;-63
2023/05/28 06:19:54;;;;;;;18.95;6.97;;;;;;;;;;5051332;28;20485;-64
2023/05/28 06:22:20;;;;;;;15.05;6.65;;;;;;;;;;5053120;28;20033;-63
2023/05/28 06:24:46;;;;;;;17.80;7.07;;;;;;;;;;5051250;28;20032;-63
2023/05/28 06:27:11;;;;;;;19.08;7.10;;;;;;;;;;5051169;28;20032;-63
2023/05/28 06:29:37;;;;;;;17.60;6.45;;;;;;;;;;5052818;28;20009;-62
2023/05/28 06:32:02;;;;;;;17.00;6.50;;;;;;;;;;5053620;28;20027;-62
2023/05/28 06:34:27;;;;;;;15.48;6.43;;;;;;;;;;5063600;28;20016;-62
2023/05/28 06:36:53;;;;;;;18.20;6.18;;;;;;;;;;5070951;28;20009;-61
2023/05/28 06:39:18;;;;;;;14.38;5.97;;;;;;;;;;5066561;28;20012;-61
2023/05/28 06:41:44;;;;;;;15.38;5.78;;;;;;;;;;5051487;28;20083;-61
2023/05/28 06:44:09;;;;;;;15.02;5.57;;;;;;;;;;5051401;28;20013;-61
2023/05/28 06:46:34;;;;;;;13.50;5.97;;;;;;;;;;5053594;28;20083;-62
2023/05/28 06:49:00;;;;;;;11.73;6.00;;;;;;;;;;5055580;28;20425;-61
2023/05/28 06:51:25;;;;;;;15.55;5.68;;;;;;;;;;5053921;28;20021;-62
2023/05/28 06:53:50;;;;;;;13.35;5.57;;;;;;;;;;5054931;28;20059;-62
2023/05/28 06:56:16;;;;;;;13.30;5.80;;;;;;;;;;5055441;28;20017;-61
2023/05/28 06:58:41;;;;;;;14.60;5.63;;;;;;;;;;5055479;28;20037;-62
2023/05/28 07:01:07;;;;;;;12.98;5.40;;;;;;;;;;5054397;28;20116;-62
2023/05/28 07:03:32;;;;;;;15.55;5.68;;;;;;;;;;5054539;28;20117;-62
2023/05/28 07:05:57;;;;;;;16.13;6.03;;;;;;;;;;5055918;28;20421;-61
2023/05/28 07:08:23;;;;;;;13.38;5.25;;;;;;;;;;5052168;28;20106;-61
2023/05/28 07:10:48;;;;;;;17.15;6.00;;;;;;;;;;5075998;28;20032;-61
2023/05/28 07:13:13;;;;;;;15.95;6.00;;;;;;;;;;5063902;28;20478;-62
2023/05/28 07:15:39;;;;;;;15.77;6.53;;;;;;;;;;5055914;28;20028;-62
2023/05/28 07:18:04;;;;;;;17.70;7.18;;;;;;;;;;5052336;28;20023;-61
2023/05/28 07:20:29;;;;;;;15.02;6.78;;;;;;;;;;5054921;28;20021;-61
2023/05/28 07:22:55;;;;;;;18.27;7.38;;;;;;;;;;5050252;28;20025;-62
2023/05/28 07:25:20;;;;;;;16.52;6.53;;;;;;;;;;5049819;28;20020;-62
2023/05/28 07:27:45;;;;;;;15.63;6.88;;;;;;;;;;5047682;28;20377;-61
2023/05/28 07:30:11;;;;;;;19.50;6.88;;;;;;;;;;5058370;28;20171;-61
2023/05/28 07:32:36;;;;;;;20.48;7.07;;;;;;;;;;5059005;28;20486;-60
2023/05/28 07:35:01;;;;;;;15.80;6.63;;;;;;;;;;5055019;28;20031;-60
2023/05/28 07:37:27;;;;;;;15.75;6.47;;;;;;;;;;5054133;28;20027;-61
2023/05/28 07:39:52;;;;;;;15.82;6.60;;;;;;;;;;5052363;28;20017;-60
2023/05/28 07:42:19;;;;;;;18.77;6.32;;;;;;;;;;5050179;28;20021;-61
2023/05/28 07:44:44;;;;;;;13.02;6.00;;;;;;;;;;5054249;28;20024;-61
2023/05/28 07:47:09;;;;;;;13.98;6.03;;;;;;;;;;5060078;28;20075;-61
2023/05/28 07:49:35;;;;;;;11.02;5.80;;;;;;;;;;5043395;28;20048;-61
2023/05/28 07:52:00;;;;;;;11.57;5.50;;;;;;;;;;5049326;28;20040;-62
2023/05/28 07:54:25;;;;;;;12.48;5.63;;;;;;;;;;5052834;28;20090;-61
2023/05/28 07:56:51;;;;;;;12.73;5.22;;;;;;;;;;5055259;28;20024;-61
2023/05/28 07:59:17;;;;;;;11.80;5.13;;;;;;;;;;5043111;28;20435;-61
2023/05/28 08:01:43;;;;;;;15.30;5.50;;;;;;;;;;5046260;28;20032;-61
2023/05/28 08:04:08;;;;;;;14.35;4.88;;;;;;;;;;5048231;28;20495;-61
2023/05/28 08:06:33;;;;;;;14.15;5.07;;;;;;;;;;5052457;28;20021;-61
2023/05/28 08:08:59;;;;;;;13.60;5.32;;;;;;;;;;5050978;28;20020;-62
2023/05/28 08:11:25;;;;;;;16.48;5.20;;;;;;;;;;5052194;28;20127;-62
2023/05/28 08:13:50;;;;;;;13.00;5.47;;;;;;;;;;5053973;28;20487;-61
2023/05/28 08:16:16;;;;;;;12.63;5.30;;;;;;;;;;5052080;28;20103;-61
2023/05/28 08:18:41;;;;;;;13.25;5.15;;;;;;;;;;5053874;28;20079;-61
2023/05/28 08:21:07;;;;;;;16.27;5.28;;;;;;;;;;5048494;28;20024;-61
2023/05/28 08:23:34;;;;;;;11.70;5.07;;;;;;;;;;5044394;28;20052;-68
2023/05/28 08:26:01;;;;;;;15.93;5.07;;;;;;;;;;5034715;28;20021;-67
2023/05/28 08:28:26;;;;;;;13.02;5.30;;;;;;;;;;5049285;28;20059;-68
2023/05/28 08:30:51;;;;;;;11.38;4.88;;;;;;;;;;5073906;28;20055;-68
2023/05/28 08:33:17;;;;;;;19.88;4.78;;;;;;;;;;5073963;28;20082;-68
2023/05/28 08:35:42;;;;;;;14.07;5.13;;;;;;;;;;5070555;28;20382;-69
2023/05/28 08:38:07;;;;;;;12.38;4.75;;;;;;;;;;5073850;28;20028;-68
2023/05/28 08:40:36;;;;;;;11.70;4.70;;;;;;;;;;5074271;28;20027;-68
2023/05/28 08:43:01;;;;;;;10.30;4.10;;;;;;;;;;5074204;28;20016;-68
2023/05/28 08:45:26;;;;;;;10.93;4.75;;;;;;;;;;5071492;28;20095;-69
2023/05/28 08:47:52;;;;;;;13.50;4.90;;;;;;;;;;5074188;28;20025;-68
2023/05/28 08:50:19;;;;;;;13.60;4.65;;;;;;;;;;5074022;28;20098;-68
2023/05/28 08:52:45;;;;;;;10.10;4.43;;;;;;;;;;5071045;28;20028;-68
2023/05/28 08:55:10;;;;;;;10.98;4.38;;;;;;;;;;5073957;28;20017;-68
2023/05/28 08:57:36;;;;;;;14.15;4.30;;;;;;;;;;5071533;28;20501;-68
2023/05/28 09:00:07;;;;;;;10.73;3.90;;;;;;;;;;5073645;28;20020;-69
2023/05/28 09:02:33;;;;;;;11.85;4.20;;;;;;;;;;5073559;28;20098;-68
2023/05/28 09:04:58;;;;;;;8.88;3.35;;;;;;;;;;5060541;28;20049;-67
2023/05/28 09:07:23;;;;;;;8.80;3.42;;;;;;;;;;5067091;28;20107;-69
2023/05/28 09:09:49;;;;;;;10.15;3.90;;;;;;;;;;5073509;28;20026;-69
2023/05/28 09:12:19;;;;;;;12.93;3.92;;;;;;;;;;5071060;28;20036;-69
2023/05/28 09:14:45;;;;;;;14.38;3.45;;;;;;;;;;5053338;28;20013;-70
2023/05/28 09:17:13;;;;;;;12.25;4.07;;;;;;;;;;5067252;28;20033;-67
2023/05/28 09:19:38;;;;;;;10.43;3.70;;;;;;;;;;5061251;28;20024;-69
2023/05/28 09:22:04;;;;;;;8.65;3.42;;;;;;;;;;5062012;28;20025;-69
2023/05/28 09:24:30;;;;;;;9.50;3.45;;;;;;;;;;5073102;28;20020;-68
2023/05/28 09:26:57;;;;;;;9.63;3.63;;;;;;;;;;5072023;28;20020;-68
2023/05/28 09:29:23;;;;;;;12.25;4.30;;;;;;;;;;5073480;28;20032;-68
2023/05/28 09:31:58;;;;;;;10.93;3.83;;;;;;;;;;5064179;28;20024;-68
2023/05/28 09:34:27;;;;;;;9.50;3.85;;;;;;;;;;5053377;28;20470;-68
2023/05/28 09:36:53;;;;;;;11.25;3.63;;;;;;;;;;5053392;28;20021;-68
2023/05/28 09:39:18;;;;;;;8.63;2.72;;;;;;;;;;5053312;28;20031;-68
2023/05/28 09:41:45;;;;;;;7.80;3.28;;;;;;;;;;5052924;28;20025;-69
2023/05/28 09:44:11;;;;;;;10.23;3.50;;;;;;;;;;5060915;28;20021;-68
2023/05/28 09:46:36;;;;;;;10.82;3.30;;;;;;;;;;5073250;28;20035;-68
2023/05/28 09:49:03;;;;;;;10.40;3.30;;;;;;;;;;5072919;28;20111;-69
2023/05/28 09:51:29;;;;;;;9.77;3.40;;;;;;;;;;5065677;28;20486;-69
2023/05/28 09:54:05;;;;;;;9.43;3.58;;;;;;;;;;5056007;28;20098;-68
2023/05/28 09:56:31;;;;;;;9.57;3.42;;;;;;;;;;5064154;28;20020;-68
2023/05/28 09:59:02;;;;;;;11.20;3.50;;;;;;;;;;5073203;28;20017;-69
2023/05/28 10:01:33;;;;;;;8.80;3.28;;;;;;;;;;5061965;28;20021;-68
2023/05/28 10:04:05;;;;;;;9.48;3.42;;;;;;;;;;5052280;28;20037;-70
2023/05/28 10:06:31;;;;;;;11.75;3.67;;;;;;;;;;5049856;28;20037;-68
2023/05/28 10:08:59;;;;;;;9.02;3.50;;;;;;;;;;5052927;28;20205;-68
2023/05/28 10:11:28;;;;;;;10.90;3.80;;;;;;;;;;5052616;28;20118;-69
2023/05/28 10:13:57;;;;;;;10.73;3.58;;;;;;;;;;5052714;28;20052;-69
2023/05/28 10:16:23;;;;;;;13.85;3.60;;;;;;;;;;5053372;28;20052;-68
2023/05/28 10:18:49;;;;;;;11.50;3.70;;;;;;;;;;5053380;28;20021;-68
2023/05/28 10:21:14;;;;;;;10.20;3.75;;;;;;;;;;5071441;28;20036;-69
2023/05/28 10:23:43;;;;;;;11.00;3.70;;;;;;;;;;5073428;28;20126;-69
2023/05/28 10:26:09;;;;;;;13.45;3.80;;;;;;;;;;5076648;28;20025;-69
2023/05/28 10:28:34;;;;;;;10.93;3.67;;;;;;;;;;5076857;28;20027;-69
2023/05/28 10:31:04;;;;;;;10.20;3.20;;;;;;;;;;5076383;28;20389;-69
2023/05/28 10:33:30;;;;;;;13.73;3.72;;;;;;;;;;5073629;28;20104;-69
2023/05/28 10:35:57;;;;;;;12.15;3.50;;;;;;;;;;5073654;28;20020;-70
2023/05/28 10:38:22;;;;;;;11.05;3.67;;;;;;;;;;5071946;28;20482;-69
2023/05/28 10:40:48;;;;;;;13.02;3.63;;;;;;;;;;5076365;28;20016;-70
2023/05/28 10:43:32;;;;;;;11.45;3.70;;;;;;;;;;5073557;28;20020;-69
2023/05/28 10:45:57;;;;;;;12.48;3.72;;;;;;;;;;5076470;28;20471;-69
2023/05/28 10:48:23;;;;;;;14.93;3.65;;;;;;;;;;5076143;28;20023;-69
2023/05/28 10:50:58;;;;;;;9.95;3.70;;;;;;;;;;5076213;28;20029;-69
2023/05/28 10:53:24;;;;;;;12.50;3.50;;;;;;;;;;5067788;28;20108;-69
2023/05/28 10:55:50;;;;;;;11.38;3.80;;;;;;;;;;5056301;28;20037;-71
2023/05/28 10:58:25;;;;;;;12.07;3.30;;;;;;;;;;5055873;28;20021;-69
2023/05/28 11:00:51;;;;;;;15.30;3.53;;;;;;;;;;5055927;28;20021;-69
2023/05/28 11:03:16;;;;;;;12.43;3.50;;;;;;;;;;5069949;28;20035;-69
2023/05/28 11:05:41;;;;;;;10.95;3.13;;;;;;;;;;5075692;28;20056;-69
2023/05/28 11:08:08;;;;;;;10.10;3.20;;;;;;;;;;5070473;28;20039;-68
2023/05/28 11:10:33;;;;;;;9.60;3.33;;;;;;;;;;5073838;28;20135;-69
2023/05/28 11:12:58;;;;;;;9.45;3.22;;;;;;;;;;5069726;28;20036;-69
2023/05/28 11:15:24;;;;;;;8.75;3.08;;;;;;;;;;5055909;28;20017;-69
2023/05/28 11:17:49;;;;;;;8.70;3.50;;;;;;;;;;5055511;28;20017;-70
2023/05/28 11:20:19;;;;;;;11.45;3.40;;;;;;;;;;5064606;28;20043;-70
2023/05/28 11:22:44;;;;;;;11.05;3.78;;;;;;;;;;5071441;28;20027;-69
2023/05/28 11:25:12;;;;;;;11.93;3.63;;;;;;;;;;5075782;28;20020;-69
2023/05/28 11:27:37;;;;;;;9.27;3.60;;;;;;;;;;5075775;28;20059;-69
2023/05/28 11:30:06;;;;;;;12.25;3.90;;;;;;;;;;5068034;28;20056;-68
2023/05/28 11:32:32;;;;;;;9.98;3.70;;;;;;;;;;5070705;28;20016;-69
2023/05/28 11:34:58;;;;;;;11.73;3.70;;;;;;;;;;5057041;28;20371;-69
2023/05/28 11:37:25;;;;;;;12.27;3.80;;;;;;;;;;5054633;28;20123;-70
2023/05/28 11:39:52;;;;;;;16.13;3.78;;;;;;;;;;5075498;28;20421;-69
2023/05/28 11:42:18;;;;;;;10.88;3.67;;;;;;;;;;5075408;28;20386;-69
2023/05/28 11:44:44;;;;;;;14.88;4.32;;;;;;;;;;5075377;28;20020;-69
2023/05/28 11:47:10;;;;;;;11.43;3.60;;;;;;;;;;5072973;28;20023;-70
2023/05/28 11:49:36;;;;;;;12.13;3.90;;;;;;;;;;5035092;28;20017;-69
2023/05/28 11:52:02;;;;;;;9.13;3.53;;;;;;;;;;5036298;28;20029;-72
2023/05/28 11:54:27;;;;;;;11.23;3.72;;;;;;;;;;5055659;28;20024;-72
2023/05/28 11:56:52;;;;;;;11.18;3.90;;;;;;;;;;5054822;28;20434;-72
2023/05/28 11:59:20;;;;;;;10.07;3.50;;;;;;;;;;5070918;28;20077;-71
2023/05/28 12:01:45;;;;;;;9.65;3.42;;;;;;;;;;5074828;28;20028;-71
2023/05/28 12:04:10;;;;;;;11.13;3.63;;;;;;;;;;5068236;28;20045;-70
2023/05/28 12:06:51;;;;;;;12.50;3.95;;;;;;;;;;5055040;28;20027;-70
2023/05/28 12:09:17;;;;;;;;;;;;;;;;;;5059056;28;20035;-69
2023/05/28 12:11:42;;;;;;;12.87;3.90;;;;;;;;;;5054540;28;19917;-70
2023/05/28 12:14:08;;;;;;;12.85;4.30;;;;;;;;;;5054599;28;20275;-69
2023/05/28 12:16:41;;;;;;;12.75;3.80;;;;;;;;;;5054590;28;20155;-70
2023/05/28 12:19:13;;;;;;;8.18;3.50;;;;;;;;;;5067043;28;20024;-71
2023/05/28 12:21:38;;;;;;;10.20;3.80;;;;;;;;;;5074710;28;20020;-70
2023/05/28 12:24:09;;;;;;;12.90;3.95;;;;;;;;;;5070677;28;20035;-70
2023/05/28 12:26:35;;;;;;;11.98;4.35;;;;;;;;;;5074302;28;20027;-70
2023/05/28 12:29:00;;;;;;;11.00;3.92;;;;;;;;;;5072105;28;20028;-71
2023/05/28 12:31:28;;;;;;;11.55;3.42;;;;;;;;;;5074054;28;20017;-71
2023/05/28 12:33:54;;;;;;;12.13;3.67;;;;;;;;;;5074471;28;20016;-72
2023/05/28 12:36:19;;;;;;;19.23;4.50;;;;;;;;;;5074429;28;20512;-71
2023/05/28 12:38:44;;;;;;;13.15;3.85;;;;;;;;;;5070056;28;20074;-71
2023/05/28 12:41:10;;;;;;;10.73;4.10;;;;;;;;;;5074275;28;20047;-70
2023/05/28 12:43:35;;;;;;;10.55;3.33;;;;;;;;;;5063703;28;20028;-71
2023/05/28 12:46:00;;;;;;;12.25;3.75;;;;;;;;;;5054027;28;20021;-72
2023/05/28 12:48:26;;;;;;;10.43;3.30;;;;;;;;;;5060916;28;20067;-72
2023/05/28 12:50:51;;;;;;;10.77;3.33;;;;;;;;;;5074044;28;20074;-73
2023/05/28 12:53:16;;;;;;;10.43;3.50;;;;;;;;;;5070303;28;20423;-72
2023/05/28 12:55:41;;;;;;;11.70;3.72;;;;;;;;;;5074062;28;20016;-71
2023/05/28 12:58:07;;;;;;;10.02;3.30;;;;;;;;;;5071596;28;20025;-71
2023/05/28 13:00:32;;;;;;;9.52;3.28;;;;;;;;;;5073934;28;20386;-71
2023/05/28 13:02:57;;;;;;;8.95;3.45;;;;;;;;;;5073743;28;20116;-71
2023/05/28 13:05:23;;;;;;;10.15;3.40;;;;;;;;;;5073417;28;20044;-71
2023/05/28 13:07:48;;;;;;;8.55;3.45;;;;;;;;;;5071046;28;20384;-72
2023/05/28 13:10:13;;;;;;;11.10;3.95;;;;;;;;;;5053272;28;20060;-71
2023/05/28 13:12:39;;;;;;;9.90;3.60;;;;;;;;;;5053801;28;20505;-72
2023/05/28 13:15:05;;;;;;;8.38;3.55;;;;;;;;;;5053910;28;20191;-71
2023/05/28 13:17:30;;;;;;;8.82;3.15;;;;;;;;;;5053403;28;20088;-72
2023/05/28 13:19:56;;;;;;;8.98;3.50;;;;;;;;;;5056281;28;20116;-71
2023/05/28 13:22:21;;;;;;;9.98;3.42;;;;;;;;;;5052882;28;20044;-71
2023/05/28 13:24:46;;;;;;;11.02;3.50;;;;;;;;;;5065282;28;20020;-72
2023/05/28 13:27:12;;;;;;;11.27;3.72;;;;;;;;;;5069836;28;20478;-70
2023/05/28 13:29:38;;;;;;;9.77;3.80;;;;;;;;;;5072314;28;20024;-70
2023/05/28 13:32:04;;;;;;;9.63;3.17;;;;;;;;;;5068997;28;20047;-71
2023/05/28 13:34:30;;;;;;;9.10;3.63;;;;;;;;;;5052564;28;20021;-71
2023/05/28 13:36:55;;;;;;;10.27;3.35;;;;;;;;;;5053126;28;20016;-72
2023/05/28 13:39:21;;;;;;;7.60;3.00;;;;;;;;;;5065995;28;20024;-72
2023/05/28 13:41:48;;;;;;;6.13;2.80;;;;;;;;;;5056766;28;20475;-71
2023/05/28 13:44:13;;;;;;;8.82;3.45;;;;;;;;;;5052943;28;20029;-71
2023/05/28 13:46:39;;;;;;;8.95;3.25;;;;;;;;;;5053188;28;20098;-71
2023/05/28 13:49:04;;;;;;;7.72;3.10;;;;;;;;;;5065094;28;20032;-71
2023/05/28 13:51:30;;;;;;;8.85;3.08;;;;;;;;;;5072845;28;20025;-72
2023/05/28 13:53:55;;;;;;;9.82;3.00;;;;;;;;;;5060202;28;20143;-71
2023/05/28 13:56:21;;;;;;;9.23;3.45;;;;;;;;;;5051382;28;20061;-71
2023/05/28 13:58:46;;;;;;;8.00;2.90;;;;;;;;;;5060783;28;20028;-70
2023/05/28 14:01:11;;;;;;;8.68;3.10;;;;;;;;;;5069155;28;20086;-71
2023/05/28 14:03:37;;;;;;;8.07;3.05;;;;;;;;;;5071760;28;20055;-71
2023/05/28 14:06:03;;;;;;;10.15;3.42;;;;;;;;;;5071562;28;20048;-71
2023/05/28 14:08:29;;;;;;;10.25;2.90;;;;;;;;;;5055923;28;20385;-71
2023/05/28 14:10:54;;;;;;;7.95;3.15;;;;;;;;;;5073079;28;20029;-69
2023/05/28 14:13:19;;;;;;;8.02;3.25;;;;;;;;;;5069806;28;20021;-70
2023/05/28 14:15:45;;;;;;;7.43;3.00;;;;;;;;;;5072801;28;20017;-71
2023/05/28 14:18:11;;;;;;;6.97;2.60;;;;;;;;;;5053686;28;20079;-70
2023/05/28 14:20:36;;;;;;;9.30;2.95;;;;;;;;;;5052949;28;20028;-70
2023/05/28 14:23:02;;;;;;;7.07;2.78;;;;;;;;;;5056015;28;20024;-71